x

East Lake Ontario - 20nm North Northeast Of Rochester, Ny (45012) Wave Buoy

6:50pm - Mon 29th May 2017 All times are CDT. -5 hours from GMT.

  • Sig Wave height 0.7ft
  • Average Period 3s
  • Wind
    11mph, 11mph gusts
  • Sea Temp 49°f
  • Air Temp 56°f
  • Sea Pressure 1010.4mb
  • East Lake Ontario  - 20nm North Northeast Of Rochester, Ny
  • East Lake Ontario  - 20nm North Northeast Of Rochester, Ny

More Historic Weather Station data

Upgrade to MSW Pro to gain access to the past 30 days of data for over 8000 Wavebouys and Weather Stations around the globe.

Join Pro

Comparision Forecast

View Surf forecast
   
Mon 05/29 6:50pm 0.7ft  -  3s 11 11 mph 1010.4mb 49f 56f
5:50pm 0.7ft  -  3s 11 13 mph 1010mb 49f 56f
4:50pm 0.7ft  -  3s 7 9 mph 1009.9mb 49f 55f
3:50pm 0.7ft  -  3s 7 9 mph 1009.5mb 49f 56f
2:50pm 1ft 4s 3s 7 7 mph 1009.4mb 48f 54f
1:50pm 1ft 4s 3s 7 7 mph 1009.1mb 48f 57f
12:50pm 1.3ft 4s 4s 4 7 mph 1009.1mb 47f 57f
11:50am 1.3ft 4s 4s 7 9 mph 1008.7mb 46f 52f
10:50am 1ft 3s 3s 9 11 mph 1008mb 46f 52f
9:50am 0.7ft  -  3s 9 9 mph 1007.7mb 46f 52f
8:50am 1ft 3s 3s 9 11 mph 1007.2mb 46f 51f
7:50am 0.7ft  -  3s 9 11 mph 1006.8mb 46f 52f
6:50am 0.3ft  -  3s 13 16 mph 1006.3mb 46f 51f
5:50am 0.3ft  -  3s 9 11 mph 1005.8mb 46f 55f
4:50am 0.7ft  -  3s 7 9 mph 1005.8mb 46f 52f
3:50am  -   -   -  11 13 mph 1005.6mb 46f 54f
2:50am 0.3ft  -  3s 11 11 mph 1005.2mb 46f 53f
1:50am  -   -   -  11 11 mph 1004.9mb 46f 53f
12:50am 0.7ft  -  2s 11 13 mph 1005.2mb 46f 54f
Sun 05/28 11:50pm 0.7ft  -  3s 11 11 mph 1005.5mb 46f 53f
10:50pm  -   -   -  11 13 mph 1005.8mb 47f 54f
9:50pm  -   -   -  11 13 mph 1006.2mb 47f 55f
8:50pm 0.7ft  -  2s 16 16 mph 1006mb 47f 56f
7:50pm  -   -   -  11 13 mph 1006.1mb 47f 55f
6:50pm 0.7ft  -  3s 11 11 mph 1006.6mb 47f 53f
5:50pm 0.7ft  -  3s 11 11 mph 1006.7mb 48f 53f
4:50pm 0.7ft  -  3s 11 11 mph 1007.2mb 48f 53f
3:50pm 0.3ft  -  2s 11 13 mph 1007.9mb 47f 53f
2:50pm  -   -   -  11 13 mph 1008.5mb 47f 52f
1:50pm 0.3ft  -  2s 11 13 mph 1009.2mb 47f 51f
12:50pm 0.3ft  -  3s 11 11 mph 1010.3mb 47f 50f
11:50am  -   -  3s 9 11 mph 1011mb 47f 49f
10:50am  -   -  4s 9 9 mph 1011mb 46f 49f
9:50am  -   -  4s 7 9 mph 1010.8mb 46f 49f
8:50am 0.3ft  -  3s 7 7 mph 1011.3mb 46f 48f
7:50am  -   -  4s 9 9 mph 1011.4mb 46f 46f
6:50am  -   -  4s 7 7 mph 1012mb 46f 46f
5:50am 0.3ft  -  4s 4 4 mph 1012.3mb 46f 46f
4:50am  -   -  3s 4 7 mph 1012.1mb 46f 46f
3:50am  -   -  3s 4 4 mph 1012mb 46f 45f
2:50am  -   -  3s 2 2 mph 1012.3mb 46f 47f
1:50am  -   -  3s 4 4 mph 1012.3mb 46f 48f
12:50am  -   -  3s 4 4 mph 1012mb 47f 47f
Sat 05/27 11:50pm  -   -  3s 4 4 mph 1013.1mb 47f 47f
10:50pm  -   -  3s 2 2 mph 1012.5mb 47f 48f
9:50pm  -   -  3s 2 4 mph 1012.5mb 47f 49f
8:50pm  -   -  3s 2 2 mph 1012.7mb 48f 49f
7:50pm  -   -  3s 4 4 mph 1013mb 49f 48f
6:50pm  -   -  3s 4 7 mph 1012.9mb 49f 51f
5:50pm  -   -  3s 4 4 mph 1012.4mb 49f 51f
4:50pm  -   -  3s 4 4 mph 1012.3mb 50f 52f
3:50pm 0.3ft  -  3s 7 7 mph 1012.2mb 51f 53f
2:50pm  -   -  3s 2 2 mph 1012.3mb 50f 54f
1:50pm 0.3ft  -  3s  -  0 mph 1012.8mb 48f 54f
12:50pm 0.3ft  -  3s 2 2 mph 1013.1mb 47f 51f
11:50am 0.3ft  -  3s 4 4 mph 1013mb 46f 49f
10:50am 0.3ft  -  3s 2 2 mph 1013.1mb 46f 49f
9:50am 0.3ft  -  3s 2 2 mph 1013mb 45f 48f
8:50am 0.3ft  -  3s 2 4 mph 1012.8mb 44f 47f
7:50am 0.3ft  -  3s 2 2 mph 1012.6mb 44f 47f
6:50am 0.3ft  -  3s 2 2 mph 1012.3mb 44f 47f
5:50am 0.3ft  -  3s 2 2 mph 1012.1mb 44f 47f
4:50am  -   -   -  4 4 mph 1011.6mb 44f 45f
3:50am 0.7ft  -  3s  -  2 mph 1011.4mb 44f 45f
2:50am 0.3ft  -  3s 4 4 mph 1011.3mb 44f 46f
1:50am 0.3ft  -  3s 4 4 mph 1010.8mb 44f 49f
12:50am 0.3ft  -  3s  -  2 mph 1010.7mb 44f 50f
Fri 05/26 11:50pm 0.3ft  -  3s 2 2 mph 1011mb 44f 48f
10:50pm 0.3ft  -  3s 2 2 mph 1010.9mb 44f 47f
9:50pm 0.7ft  -  3s 4 4 mph 1010.5mb 44f 49f
8:50pm 0.3ft  -  3s 4 4 mph 1010.1mb 44f 48f
7:50pm 0.3ft  -  3s 2 2 mph 1009.8mb 44f 47f
6:50pm 0.7ft  -  3s 2 4 mph 1009.1mb 44f 48f
5:50pm 0.7ft  -  3s 9 9 mph 1008.4mb 44f 47f
4:50pm 0.7ft  -  3s 9 9 mph 1007.8mb 44f 48f
3:50pm 0.7ft  -  3s 9 9 mph 1007.3mb 44f 48f
2:50pm  -   -   -  9 9 mph 1007mb 44f 47f
1:50pm 1ft 3s 3s 13 13 mph 1006.5mb 44f 48f
12:50pm  -   -   -  13 13 mph 1005.8mb 44f 46f
11:50am 0.7ft  -  3s 11 13 mph 1005.5mb 44f 46f
10:50am 0.3ft  -  3s 11 11 mph 1005mb 44f 46f
9:50am 0.3ft  -  3s 9 11 mph 1004.6mb 44f 46f
8:50am 0.3ft  -  3s 9 11 mph 1004mb 44f 46f
7:50am 0.7ft  -  3s 4 7 mph 1003.6mb 44f 47f
6:50am 0.7ft  -  3s 4 4 mph 1002.9mb 44f 46f
5:50am 0.7ft  -  3s  -  2 mph 1002.3mb 44f 46f
4:50am  -   -   -  7 7 mph 1001.2mb 44f 48f
3:50am 1ft 3s 3s 7 9 mph 1000.5mb 44f 47f
2:50am 1.3ft 3s 3s 11 13 mph 1000.2mb 44f 47f
1:50am 1.3ft 4s 3s 13 16 mph 1000.2mb 44f 48f